createdAt,value
2022-10-22T00:05:08.788Z,14.30
2022-10-22T00:11:14.470Z,14.10
2022-10-22T00:17:17.386Z,14.10
2022-10-22T00:23:19.104Z,14.10
2022-10-22T00:29:21.075Z,14.10
2022-10-22T00:35:22.774Z,14.10
2022-10-22T00:41:24.430Z,14.00
2022-10-22T00:47:28.444Z,13.90
2022-10-22T00:53:32.668Z,13.80
2022-10-22T00:59:34.733Z,13.70
2022-10-22T01:05:41.840Z,13.70
2022-10-22T01:12:02.034Z,13.60
2022-10-22T01:18:09.525Z,13.60
2022-10-22T01:24:20.016Z,13.70
2022-10-22T01:30:22.238Z,13.80
2022-10-22T01:36:24.021Z,13.90
2022-10-22T01:42:25.968Z,13.90
2022-10-22T01:48:30.790Z,13.90
2022-10-22T01:54:38.621Z,13.90
2022-10-22T02:00:44.741Z,13.80
2022-10-22T02:06:47.982Z,13.80
2022-10-22T02:12:50.751Z,13.80
2022-10-22T02:18:54.165Z,13.70
2022-10-22T02:24:56.563Z,13.80
2022-10-22T02:31:01.747Z,13.80
2022-10-22T02:37:04.365Z,13.80
2022-10-22T02:43:06.393Z,13.70
2022-10-22T02:49:08.168Z,13.50
2022-10-22T02:55:10.431Z,13.40
2022-10-22T03:01:15.282Z,13.40
2022-10-22T03:07:18.154Z,13.30
2022-10-22T03:13:19.991Z,13.30
2022-10-22T03:19:21.843Z,13.30
2022-10-22T03:25:25.283Z,13.20
2022-10-22T03:31:27.092Z,13.10
2022-10-22T03:37:29.027Z,13.10
2022-10-22T03:43:30.698Z,13.00
2022-10-22T03:49:32.398Z,13.10
2022-10-22T03:55:34.231Z,13.20
2022-10-22T04:01:36.407Z,13.40
2022-10-22T04:07:38.599Z,13.50
2022-10-22T04:13:40.733Z,13.50
2022-10-22T04:19:42.462Z,13.40
2022-10-22T04:25:44.321Z,13.40
2022-10-22T04:31:46.180Z,13.30
2022-10-22T04:37:47.883Z,13.00
2022-10-22T04:43:49.917Z,13.00
2022-10-22T04:49:52.206Z,13.00
2022-10-22T04:55:54.274Z,12.90
2022-10-22T05:01:55.969Z,12.90
2022-10-22T05:07:57.866Z,12.80
2022-10-22T05:14:00.451Z,12.80
2022-10-22T05:20:02.269Z,13.10
2022-10-22T05:26:04.600Z,13.10
2022-10-22T05:32:06.311Z,13.20
2022-10-22T05:38:08.592Z,13.20
2022-10-22T05:44:11.523Z,13.30
2022-10-22T05:50:13.378Z,13.20
2022-10-22T05:56:15.981Z,13.30
2022-10-22T06:02:17.841Z,13.30
2022-10-22T06:08:19.534Z,13.40
2022-10-22T06:14:21.690Z,13.20
2022-10-22T06:20:23.583Z,12.60
2022-10-22T06:26:25.900Z,12.30
2022-10-22T06:32:27.826Z,12.40
2022-10-22T06:38:29.567Z,12.60
2022-10-22T06:44:31.273Z,12.80
2022-10-22T06:50:36.139Z,12.90
2022-10-22T06:56:37.938Z,13.10
2022-10-22T07:02:40.015Z,13.30
2022-10-22T07:08:42.392Z,13.40
2022-10-22T07:14:44.245Z,13.70
2022-10-22T07:20:47.209Z,13.50
2022-10-22T07:26:49.197Z,13.60
2022-10-22T07:32:50.867Z,13.70
2022-10-22T07:38:57.098Z,13.90
2022-10-22T07:44:58.712Z,14.00
2022-10-22T07:51:00.467Z,14.10
2022-10-22T07:57:02.260Z,14.00
2022-10-22T08:03:04.120Z,14.20
2022-10-22T08:09:06.317Z,14.40
2022-10-22T08:15:08.427Z,14.70
2022-10-22T08:21:10.946Z,15.00
2022-10-22T08:27:13.295Z,15.20
2022-10-22T08:33:15.226Z,15.30
2022-10-22T08:39:17.156Z,15.40
2022-10-22T08:45:23.065Z,15.60
2022-10-22T08:51:26.255Z,15.80
2022-10-22T08:57:52.450Z,15.90
2022-10-22T09:04:25.323Z,16.10
2022-10-22T09:10:29.432Z,16.30
2022-10-22T09:16:39.777Z,16.50
2022-10-22T09:22:57.371Z,16.50
2022-10-22T09:29:00.328Z,16.60
2022-10-22T09:35:01.940Z,16.60
2022-10-22T09:41:05.741Z,16.50
2022-10-22T09:47:08.201Z,16.60
2022-10-22T09:53:17.257Z,16.80
2022-10-22T09:59:19.539Z,16.70
2022-10-22T10:05:25.458Z,16.70
2022-10-22T10:11:29.576Z,16.70
2022-10-22T10:17:43.909Z,16.70
2022-10-22T10:23:45.866Z,16.60
2022-10-22T10:30:00.431Z,16.60
2022-10-22T10:36:06.743Z,16.90
2022-10-22T10:42:15.606Z,17.20
2022-10-22T10:48:17.273Z,17.70
2022-10-22T10:54:27.579Z,17.80
2022-10-22T11:00:30.814Z,17.70
2022-10-22T11:06:34.035Z,17.60
2022-10-22T11:12:39.124Z,17.60
2022-10-22T11:18:47.645Z,17.50
2022-10-22T11:24:53.748Z,17.30
2022-10-22T11:31:01.594Z,17.40
2022-10-22T11:37:04.684Z,17.20
2022-10-22T11:43:07.607Z,17.20
2022-10-22T11:49:15.273Z,17.10
2022-10-22T11:55:32.695Z,17.20
2022-10-22T12:01:43.360Z,17.20
2022-10-22T12:07:50.884Z,17.20
2022-10-22T12:13:58.588Z,17.30
2022-10-22T12:20:07.509Z,17.30
2022-10-22T12:26:22.729Z,17.60
2022-10-22T12:32:29.649Z,17.90
2022-10-22T12:38:31.329Z,18.00
2022-10-22T12:44:32.972Z,17.70
2022-10-22T12:50:38.243Z,17.40
2022-10-22T12:56:40.144Z,17.00
2022-10-22T13:02:43.544Z,16.80
2022-10-22T13:08:54.946Z,16.70
2022-10-22T13:14:56.789Z,16.60
2022-10-22T13:21:01.858Z,16.60
2022-10-22T13:27:03.594Z,16.90
2022-10-22T13:33:07.221Z,17.00
2022-10-22T13:39:13.130Z,16.90
2022-10-22T13:45:14.923Z,16.80
2022-10-22T13:51:18.568Z,16.70
2022-10-22T13:57:20.269Z,16.50
2022-10-22T14:03:24.950Z,16.40
2022-10-22T14:09:26.725Z,16.50
2022-10-22T14:15:29.130Z,16.40
2022-10-22T14:21:34.031Z,16.30
2022-10-22T14:27:35.895Z,16.20
2022-10-22T14:33:37.774Z,16.10
2022-10-22T14:39:39.990Z,15.90
2022-10-22T14:45:41.837Z,15.70
2022-10-22T14:51:43.741Z,15.50
2022-10-22T14:57:45.937Z,15.40
2022-10-22T15:03:47.774Z,15.20
2022-10-22T15:09:49.400Z,15.20
2022-10-22T15:15:51.075Z,15.20
2022-10-22T15:21:52.976Z,15.20
2022-10-22T15:27:58.521Z,15.20
2022-10-22T15:34:06.405Z,15.20
2022-10-22T15:40:08.945Z,15.30
2022-10-22T15:46:18.348Z,15.30
2022-10-22T15:52:21.574Z,15.30
2022-10-22T15:58:23.423Z,15.20
2022-10-22T16:04:25.088Z,15.30
2022-10-22T16:10:28.319Z,15.20
2022-10-22T16:16:30.971Z,15.20
2022-10-22T16:22:33.592Z,15.20
2022-10-22T16:28:35.256Z,15.00
2022-10-22T16:34:37.074Z,15.00
2022-10-22T16:40:39.115Z,15.00
2022-10-22T16:46:40.835Z,15.00
2022-10-22T16:52:42.673Z,14.90
2022-10-22T16:58:45.939Z,14.90
2022-10-22T17:04:47.555Z,14.80
2022-10-22T17:10:49.276Z,14.80
2022-10-22T17:16:53.862Z,14.70
2022-10-22T17:22:55.784Z,14.60
2022-10-22T17:28:57.557Z,14.50
2022-10-22T17:34:59.291Z,14.50
2022-10-22T17:41:04.166Z,14.40
2022-10-22T17:47:06.213Z,14.20
2022-10-22T17:53:08.113Z,14.20
2022-10-22T17:59:11.711Z,14.20
2022-10-22T18:05:13.502Z,14.20
2022-10-22T18:11:19.250Z,14.10
2022-10-22T18:17:21.159Z,14.10
2022-10-22T18:23:23.266Z,14.20
2022-10-22T18:29:25.134Z,14.10
2022-10-22T18:35:26.999Z,14.10
2022-10-22T18:41:29.676Z,14.00
2022-10-22T18:47:31.471Z,13.90
2022-10-22T18:53:33.704Z,13.90
2022-10-22T18:59:35.401Z,13.90
2022-10-22T19:05:50.857Z,13.80
2022-10-22T19:11:52.522Z,13.80
2022-10-22T19:17:54.166Z,13.70
2022-10-22T19:23:59.222Z,13.70
2022-10-22T19:30:01.088Z,13.70
2022-10-22T19:36:10.616Z,13.70
2022-10-22T19:42:12.227Z,13.60
2022-10-22T19:48:13.960Z,13.60
2022-10-22T19:54:18.583Z,13.60
2022-10-22T20:00:20.249Z,13.60
2022-10-22T20:06:22.094Z,13.50
2022-10-22T20:12:24.006Z,13.50
2022-10-22T20:18:25.775Z,13.50
2022-10-22T20:24:27.429Z,13.60
2022-10-22T20:30:29.406Z,13.50
2022-10-22T20:36:31.976Z,13.60
2022-10-22T20:42:34.228Z,13.50
2022-10-22T20:48:38.157Z,13.50
2022-10-22T20:54:42.515Z,13.40
2022-10-22T21:00:45.143Z,13.40
2022-10-22T21:06:48.612Z,13.40
2022-10-22T21:12:50.442Z,13.30
2022-10-22T21:18:52.147Z,13.20
2022-10-22T21:24:54.045Z,13.20
2022-10-22T21:30:55.843Z,13.10
2022-10-22T21:36:57.553Z,13.20
2022-10-22T21:42:59.197Z,13.10
2022-10-22T21:49:02.073Z,13.10
2022-10-22T21:55:04.154Z,13.20
2022-10-22T22:01:06.022Z,13.20
2022-10-22T22:07:07.786Z,13.20
2022-10-22T22:13:09.697Z,13.20
2022-10-22T22:19:12.147Z,13.20
2022-10-22T22:25:13.901Z,13.20
2022-10-22T22:31:26.514Z,13.10
2022-10-22T22:37:28.163Z,13.10
2022-10-22T22:43:29.930Z,13.10
2022-10-22T22:49:31.777Z,13.00
2022-10-22T22:55:33.447Z,13.10
2022-10-22T23:01:36.609Z,13.20
2022-10-22T23:07:38.394Z,13.40
2022-10-22T23:13:41.123Z,13.20
2022-10-22T23:19:42.898Z,13.10
2022-10-22T23:25:44.602Z,13.00
2022-10-22T23:31:48.115Z,12.90
2022-10-22T23:37:49.956Z,12.70
2022-10-22T23:43:51.622Z,12.60
2022-10-22T23:49:53.336Z,12.50
2022-10-22T23:55:55.089Z,12.30
